RYR84KM EGGW-LEMI
Flight info
| Callsign | RYR84KM |
|---|---|
| Flight time | N/A |
| Altitude | 37000 |
| Route | RODNI N27 ICTAM Q63 CPT N859 VAPID UN859 BENAR/N0424F330 UN859 SOPIL DCT BALAN DCT LMG/N0433F370 DCT PIMQO DCT AGN DCT ANETO DCT POSSY DCT XIMPE DCT RIMES N860 VLC L34 ALT |
| Aircraft | B738/M-SDE3FGILRWY/SB1 |
Departure
| Time | N/A |
|---|---|
| Airport | London Luton Airport (EGGW) |
Arrival
| Time | 2026-04-24 20:53 |
|---|---|
| Airport | Region of Murcia International Airport (LEMI) |
| Time | Latitude | Longitude | Altitude | Speed | Heading |
|---|---|---|---|---|---|
| 2026-04-24 19:25 | 46.26008 | 1.03044 | 37073 ft | 435 kts | 183° |
| 2026-04-24 19:25 | 46.19960 | 1.02983 | 37087 ft | 435 kts | 183° |
| 2026-04-24 19:26 | 46.13917 | 1.02921 | 37092 ft | 434 kts | 183° |
| 2026-04-24 19:26 | 46.07881 | 1.02861 | 37090 ft | 433 kts | 183° |
| 2026-04-24 19:27 | 46.02875 | 1.02811 | 37098 ft | 433 kts | 183° |
| 2026-04-24 19:27 | 45.96860 | 1.02751 | 37099 ft | 432 kts | 183° |
| 2026-04-24 19:28 | 45.90857 | 1.02692 | 37104 ft | 431 kts | 183° |
| 2026-04-24 19:28 | 45.84864 | 1.02632 | 37100 ft | 430 kts | 183° |
| 2026-04-24 19:29 | 45.75939 | 1.03871 | 37098 ft | 432 kts | 172° |
| 2026-04-24 19:30 | 45.73054 | 1.04664 | 37102 ft | 431 kts | 172° |
| 2026-04-24 19:30 | 45.67163 | 1.06267 | 37081 ft | 431 kts | 172° |
| 2026-04-24 19:31 | 45.61274 | 1.07807 | 37090 ft | 430 kts | 172° |
| 2026-04-24 19:31 | 45.55386 | 1.09312 | 37082 ft | 429 kts | 172° |
| 2026-04-24 19:32 | 45.49506 | 1.10806 | 37081 ft | 429 kts | 172° |
| 2026-04-24 19:32 | 45.43666 | 1.12288 | 37078 ft | 429 kts | 172° |
| 2026-04-24 19:33 | 45.37789 | 1.13778 | 37081 ft | 429 kts | 172° |
| 2026-04-24 19:33 | 45.31910 | 1.15265 | 37079 ft | 429 kts | 172° |
| 2026-04-24 19:34 | 45.26029 | 1.16750 | 37075 ft | 430 kts | 172° |
| 2026-04-24 19:34 | 45.20138 | 1.18234 | 37080 ft | 430 kts | 172° |
| 2026-04-24 19:35 | 45.17413 | 1.18840 | 37066 ft | 429 kts | 178° |
| 2026-04-24 19:35 | 45.11481 | 1.18329 | 37084 ft | 425 kts | 192° |
| 2026-04-24 19:36 | 45.05666 | 1.16772 | 37078 ft | 426 kts | 193° |
| 2026-04-24 19:36 | 44.99832 | 1.15207 | 37075 ft | 427 kts | 192° |
| 2026-04-24 19:37 | 44.93984 | 1.13684 | 37081 ft | 428 kts | 192° |
| 2026-04-24 19:37 | 44.88128 | 1.12185 | 37074 ft | 428 kts | 192° |
| 2026-04-24 19:38 | 44.82267 | 1.10694 | 37069 ft | 428 kts | 192° |
| 2026-04-24 19:38 | 44.76413 | 1.09208 | 37075 ft | 427 kts | 192° |
| 2026-04-24 19:39 | 44.70564 | 1.07725 | 37077 ft | 427 kts | 192° |
| 2026-04-24 19:39 | 44.64718 | 1.06245 | 37068 ft | 427 kts | 192° |
| 2026-04-24 19:40 | 44.62063 | 1.05575 | 37073 ft | 426 kts | 192° |
| 2026-04-24 19:40 | 44.56235 | 1.04104 | 37071 ft | 426 kts | 192° |
| 2026-04-24 19:41 | 44.50408 | 1.02637 | 37069 ft | 425 kts | 192° |
| 2026-04-24 19:41 | 44.44591 | 1.01175 | 37067 ft | 425 kts | 192° |
| 2026-04-24 19:42 | 44.38775 | 0.99716 | 37068 ft | 424 kts | 192° |
| 2026-04-24 19:42 | 44.33004 | 0.98272 | 37077 ft | 424 kts | 192° |
| 2026-04-24 19:43 | 44.27191 | 0.96820 | 37071 ft | 424 kts | 192° |
| 2026-04-24 19:43 | 44.21374 | 0.95369 | 37065 ft | 425 kts | 191° |
| 2026-04-24 19:44 | 44.15556 | 0.93922 | 37074 ft | 425 kts | 192° |
| 2026-04-24 19:44 | 44.09731 | 0.92475 | 37078 ft | 425 kts | 191° |
| 2026-04-24 19:45 | 44.06910 | 0.91776 | 37069 ft | 426 kts | 192° |
| 2026-04-24 19:45 | 44.01075 | 0.90331 | 37069 ft | 426 kts | 191° |
| 2026-04-24 19:46 | 43.95233 | 0.88887 | 37077 ft | 427 kts | 191° |
| 2026-04-24 19:46 | 43.89384 | 0.87445 | 37077 ft | 427 kts | 191° |
| 2026-04-24 19:47 | 43.83539 | 0.85929 | 37073 ft | 428 kts | 192° |
| 2026-04-24 19:47 | 43.77694 | 0.84343 | 37075 ft | 428 kts | 192° |
| 2026-04-24 19:48 | 43.71846 | 0.82762 | 37078 ft | 428 kts | 192° |
| 2026-04-24 19:48 | 43.63066 | 0.80412 | 37083 ft | 429 kts | 192° |
| 2026-04-24 19:49 | 43.52338 | 0.77557 | 37084 ft | 429 kts | 192° |
| 2026-04-24 19:50 | 43.43121 | 0.75113 | 37091 ft | 428 kts | 192° |
| 2026-04-24 19:51 | 43.34356 | 0.72795 | 37090 ft | 426 kts | 192° |
| 2026-04-24 19:52 | 43.25684 | 0.70509 | 37094 ft | 423 kts | 192° |
| 2026-04-24 19:52 | 43.19913 | 0.68991 | 37090 ft | 422 kts | 192° |
| 2026-04-24 19:53 | 43.14154 | 0.67479 | 37113 ft | 420 kts | 192° |
| 2026-04-24 19:54 | 43.05542 | 0.65223 | 37125 ft | 420 kts | 192° |
| 2026-04-24 19:54 | 42.99794 | 0.63721 | 37123 ft | 421 kts | 191° |
| 2026-04-24 19:55 | 42.97840 | 0.63211 | 37134 ft | 421 kts | 191° |
| 2026-04-24 19:55 | 42.91277 | 0.61501 | 37134 ft | 422 kts | 191° |
| 2026-04-24 19:56 | 42.85494 | 0.59997 | 37140 ft | 424 kts | 191° |
| 2026-04-24 19:56 | 42.79699 | 0.58493 | 37140 ft | 424 kts | 191° |
| 2026-04-24 19:57 | 42.73894 | 0.56989 | 37154 ft | 425 kts | 191° |
| 2026-04-24 19:57 | 42.68137 | 0.55142 | 37145 ft | 426 kts | 202° |
| 2026-04-24 19:58 | 42.62770 | 0.51748 | 37144 ft | 426 kts | 206° |
| 2026-04-24 19:58 | 42.57434 | 0.48250 | 37149 ft | 426 kts | 206° |
| 2026-04-24 19:59 | 42.52110 | 0.44814 | 37139 ft | 427 kts | 205° |
| 2026-04-24 19:59 | 42.46737 | 0.41384 | 37137 ft | 427 kts | 205° |
| 2026-04-24 20:00 | 42.44377 | 0.39883 | 37124 ft | 427 kts | 205° |
| 2026-04-24 20:00 | 42.39007 | 0.36472 | 37135 ft | 425 kts | 205° |
| 2026-04-24 20:01 | 42.33655 | 0.33079 | 37130 ft | 424 kts | 205° |
| 2026-04-24 20:01 | 42.28310 | 0.29695 | 37116 ft | 424 kts | 205° |
| 2026-04-24 20:02 | 42.23880 | 0.26896 | 37117 ft | 423 kts | 205° |
| 2026-04-24 20:02 | 42.17654 | 0.22968 | 37110 ft | 422 kts | 205° |
| 2026-04-24 20:03 | 42.12337 | 0.19620 | 37118 ft | 421 kts | 205° |
| 2026-04-24 20:03 | 42.06997 | 0.16371 | 37105 ft | 421 kts | 199° |
| 2026-04-24 20:04 | 42.01269 | 0.14829 | 37112 ft | 421 kts | 186° |
| 2026-04-24 20:04 | 41.95441 | 0.14024 | 37106 ft | 421 kts | 186° |
| 2026-04-24 20:05 | 41.92358 | 0.13596 | 37110 ft | 421 kts | 186° |
| 2026-04-24 20:05 | 41.86517 | 0.12754 | 37106 ft | 422 kts | 186° |
| 2026-04-24 20:06 | 41.80713 | 0.11893 | 37101 ft | 423 kts | 186° |
| 2026-04-24 20:06 | 41.74866 | 0.11019 | 37107 ft | 423 kts | 186° |
| 2026-04-24 20:07 | 41.69959 | 0.10286 | 37105 ft | 424 kts | 186° |
| 2026-04-24 20:07 | 41.63146 | 0.09270 | 37106 ft | 424 kts | 186° |
| 2026-04-24 20:08 | 41.57276 | 0.08398 | 37103 ft | 425 kts | 186° |
| 2026-04-24 20:08 | 41.51401 | 0.07527 | 37105 ft | 425 kts | 186° |
| 2026-04-24 20:09 | 41.45528 | 0.06657 | 37098 ft | 425 kts | 186° |
| 2026-04-24 20:09 | 41.39656 | 0.05789 | 37098 ft | 424 kts | 186° |
| 2026-04-24 20:10 | 41.37122 | 0.05415 | 37101 ft | 424 kts | 186° |
| 2026-04-24 20:10 | 41.31258 | 0.04551 | 37087 ft | 424 kts | 186° |
| 2026-04-24 20:11 | 41.25399 | 0.03688 | 37101 ft | 423 kts | 186° |
| 2026-04-24 20:11 | 41.19547 | 0.02829 | 37096 ft | 423 kts | 186° |
| 2026-04-24 20:12 | 41.13698 | 0.01971 | 37100 ft | 422 kts | 186° |
| 2026-04-24 20:12 | 41.08842 | 0.01260 | 37092 ft | 423 kts | 186° |
| 2026-04-24 20:13 | 41.02011 | 0.00267 | 37098 ft | 422 kts | 186° |
| 2026-04-24 20:13 | 40.96167 | -0.00581 | 37098 ft | 423 kts | 186° |
| 2026-04-24 20:14 | 40.90321 | -0.01428 | 37111 ft | 423 kts | 186° |
| 2026-04-24 20:14 | 40.84513 | -0.02267 | 37104 ft | 422 kts | 186° |
| 2026-04-24 20:15 | 40.81889 | -0.02646 | 37108 ft | 422 kts | 186° |
| 2026-04-24 20:15 | 40.76049 | -0.03489 | 37105 ft | 422 kts | 186° |
| 2026-04-24 20:16 | 40.70206 | -0.04331 | 37116 ft | 422 kts | 186° |
| 2026-04-24 20:16 | 40.64359 | -0.05172 | 37122 ft | 422 kts | 186° |
| 2026-04-24 20:17 | 40.59503 | -0.05869 | 37120 ft | 422 kts | 186° |
| 2026-04-24 20:17 | 40.50896 | -0.08186 | 37119 ft | 422 kts | 197° |
| 2026-04-24 20:18 | 40.45294 | -0.10503 | 37113 ft | 422 kts | 197° |
| 2026-04-24 20:18 | 40.39678 | -0.12764 | 37108 ft | 422 kts | 196° |
| 2026-04-24 20:19 | 40.34049 | -0.14983 | 37111 ft | 422 kts | 196° |
| 2026-04-24 20:19 | 40.29334 | -0.16834 | 37107 ft | 422 kts | 196° |
| 2026-04-24 20:20 | 40.25997 | -0.18143 | 37107 ft | 423 kts | 196° |
| 2026-04-24 20:20 | 40.20367 | -0.20364 | 37112 ft | 423 kts | 196° |
| 2026-04-24 20:21 | 40.14740 | -0.22591 | 37114 ft | 422 kts | 196° |
| 2026-04-24 20:21 | 40.09103 | -0.24816 | 36727 ft | 421 kts | 196° |
| 2026-04-24 20:22 | 40.06324 | -0.25912 | 36366 ft | 415 kts | 196° |
| 2026-04-24 20:22 | 40.03578 | -0.26993 | 36043 ft | 410 kts | 196° |
| 2026-04-24 20:22 | 40.00856 | -0.28063 | 35639 ft | 407 kts | 196° |
| 2026-04-24 20:22 | 39.98157 | -0.29117 | 35311 ft | 402 kts | 196° |
| 2026-04-24 20:23 | 39.95490 | -0.30144 | 34956 ft | 399 kts | 196° |
| 2026-04-24 20:23 | 39.92840 | -0.31162 | 34589 ft | 396 kts | 196° |
| 2026-04-24 20:23 | 39.90207 | -0.32174 | 34217 ft | 393 kts | 196° |
| 2026-04-24 20:23 | 39.87590 | -0.33182 | 33810 ft | 391 kts | 196° |
| 2026-04-24 20:24 | 39.84991 | -0.34193 | 33399 ft | 389 kts | 196° |
| 2026-04-24 20:24 | 39.82412 | -0.35198 | 33008 ft | 386 kts | 196° |
| 2026-04-24 20:24 | 39.79849 | -0.36198 | 32641 ft | 383 kts | 196° |
| 2026-04-24 20:24 | 39.78158 | -0.36857 | 32401 ft | 382 kts | 196° |
| 2026-04-24 20:25 | 39.77367 | -0.37164 | 32290 ft | 381 kts | 196° |
| 2026-04-24 20:25 | 39.74837 | -0.38148 | 31926 ft | 378 kts | 196° |
| 2026-04-24 20:25 | 39.72324 | -0.39124 | 31579 ft | 376 kts | 196° |
| 2026-04-24 20:25 | 39.69822 | -0.40095 | 31223 ft | 374 kts | 196° |
| 2026-04-24 20:26 | 39.67334 | -0.41060 | 30871 ft | 372 kts | 196° |
| 2026-04-24 20:26 | 39.64860 | -0.42018 | 30522 ft | 371 kts | 196° |
| 2026-04-24 20:26 | 39.62395 | -0.42972 | 30177 ft | 369 kts | 196° |
| 2026-04-24 20:26 | 39.59970 | -0.43910 | 29778 ft | 367 kts | 196° |
| 2026-04-24 20:27 | 39.57531 | -0.44853 | 29403 ft | 365 kts | 195° |
| 2026-04-24 20:27 | 39.55109 | -0.45790 | 29045 ft | 361 kts | 195° |
| 2026-04-24 20:27 | 39.52708 | -0.46716 | 28679 ft | 359 kts | 195° |
| 2026-04-24 20:27 | 39.50327 | -0.47634 | 28332 ft | 356 kts | 195° |
| 2026-04-24 20:28 | 39.47935 | -0.48380 | 27949 ft | 353 kts | 186° |
| 2026-04-24 20:28 | 39.45490 | -0.48643 | 27512 ft | 352 kts | 182° |
| 2026-04-24 20:28 | 39.43052 | -0.48808 | 27148 ft | 350 kts | 182° |
| 2026-04-24 20:28 | 39.40631 | -0.48956 | 26790 ft | 348 kts | 181° |
| 2026-04-24 20:29 | 39.39000 | -0.49056 | 26553 ft | 346 kts | 181° |
| 2026-04-24 20:29 | 39.35824 | -0.49259 | 26095 ft | 344 kts | 182° |
| 2026-04-24 20:29 | 39.33442 | -0.49419 | 25760 ft | 342 kts | 181° |
| 2026-04-24 20:29 | 39.31841 | -0.49529 | 25530 ft | 341 kts | 181° |
| 2026-04-24 20:30 | 39.31381 | -0.49561 | 25462 ft | 340 kts | 181° |
| 2026-04-24 20:30 | 39.28986 | -0.49729 | 25118 ft | 339 kts | 181° |
| 2026-04-24 20:30 | 39.26638 | -0.49896 | 24784 ft | 337 kts | 181° |
| 2026-04-24 20:30 | 39.24302 | -0.50063 | 24446 ft | 336 kts | 181° |
| 2026-04-24 20:31 | 39.21976 | -0.50230 | 24120 ft | 334 kts | 181° |
| 2026-04-24 20:31 | 39.19657 | -0.50396 | 23784 ft | 333 kts | 181° |
| 2026-04-24 20:31 | 39.17349 | -0.50562 | 23403 ft | 332 kts | 181° |
| 2026-04-24 20:31 | 39.15048 | -0.50728 | 23031 ft | 330 kts | 181° |
| 2026-04-24 20:32 | 39.12767 | -0.50892 | 22682 ft | 328 kts | 181° |
| 2026-04-24 20:32 | 39.10497 | -0.51056 | 22345 ft | 326 kts | 181° |
| 2026-04-24 20:32 | 39.08242 | -0.51218 | 22015 ft | 323 kts | 181° |
| 2026-04-24 20:32 | 39.06004 | -0.51379 | 21690 ft | 321 kts | 181° |
| 2026-04-24 20:33 | 39.03781 | -0.51538 | 21362 ft | 319 kts | 181° |
| 2026-04-24 20:33 | 39.01571 | -0.51697 | 21040 ft | 317 kts | 181° |
| 2026-04-24 20:33 | 38.99373 | -0.51854 | 20727 ft | 315 kts | 181° |
| 2026-04-24 20:33 | 38.97191 | -0.52010 | 20421 ft | 313 kts | 181° |
| 2026-04-24 20:34 | 38.95017 | -0.52166 | 20098 ft | 312 kts | 181° |
| 2026-04-24 20:34 | 38.92857 | -0.52320 | 19788 ft | 311 kts | 181° |
| 2026-04-24 20:34 | 38.90701 | -0.52474 | 19473 ft | 309 kts | 181° |
| 2026-04-24 20:34 | 38.89279 | -0.52576 | 19266 ft | 309 kts | 181° |
| 2026-04-24 20:35 | 38.88843 | -0.52607 | 19206 ft | 309 kts | 182° |
| 2026-04-24 20:35 | 38.86638 | -0.52762 | 18881 ft | 308 kts | 183° |
| 2026-04-24 20:35 | 38.84504 | -0.52914 | 18568 ft | 307 kts | 183° |
| 2026-04-24 20:35 | 38.82377 | -0.53066 | 18225 ft | 306 kts | 183° |
| 2026-04-24 20:36 | 38.80254 | -0.53218 | 17891 ft | 305 kts | 183° |
| 2026-04-24 20:36 | 38.78146 | -0.53369 | 17556 ft | 303 kts | 183° |
| 2026-04-24 20:36 | 38.76073 | -0.53517 | 17246 ft | 301 kts | 183° |
| 2026-04-24 20:36 | 38.73956 | -0.53668 | 16925 ft | 300 kts | 182° |
| 2026-04-24 20:37 | 38.71910 | -0.53814 | 16625 ft | 298 kts | 182° |
| 2026-04-24 20:37 | 38.69846 | -0.53961 | 16321 ft | 296 kts | 182° |
| 2026-04-24 20:37 | 38.67790 | -0.54107 | 16019 ft | 295 kts | 182° |
| 2026-04-24 20:37 | 38.65746 | -0.54252 | 15706 ft | 293 kts | 182° |
| 2026-04-24 20:38 | 38.63714 | -0.54396 | 15415 ft | 292 kts | 183° |
| 2026-04-24 20:38 | 38.61686 | -0.54539 | 15110 ft | 291 kts | 182° |
| 2026-04-24 20:38 | 38.59665 | -0.54683 | 14803 ft | 290 kts | 182° |
| 2026-04-24 20:38 | 38.57653 | -0.54825 | 14520 ft | 289 kts | 182° |
| 2026-04-24 20:39 | 38.55648 | -0.54968 | 14220 ft | 288 kts | 182° |
| 2026-04-24 20:39 | 38.53653 | -0.55109 | 13923 ft | 288 kts | 182° |
| 2026-04-24 20:39 | 38.51652 | -0.55250 | 13591 ft | 287 kts | 182° |
| 2026-04-24 20:39 | 38.50305 | -0.55345 | 13376 ft | 287 kts | 182° |
| 2026-04-24 20:40 | 38.49558 | -0.55398 | 13253 ft | 286 kts | 182° |
| 2026-04-24 20:40 | 38.47578 | -0.55538 | 12947 ft | 285 kts | 182° |
| 2026-04-24 20:40 | 38.45595 | -0.55678 | 12647 ft | 284 kts | 181° |
| 2026-04-24 20:40 | 38.43626 | -0.55817 | 12340 ft | 283 kts | 181° |
| 2026-04-24 20:41 | 38.41666 | -0.55955 | 12051 ft | 281 kts | 181° |
| 2026-04-24 20:41 | 38.39716 | -0.56092 | 11757 ft | 280 kts | 181° |
| 2026-04-24 20:41 | 38.37772 | -0.56229 | 11459 ft | 279 kts | 181° |
| 2026-04-24 20:41 | 38.35835 | -0.56366 | 11166 ft | 278 kts | 181° |
| 2026-04-24 20:42 | 38.33907 | -0.56518 | 10840 ft | 279 kts | 185° |
| 2026-04-24 20:42 | 38.32070 | -0.57403 | 10432 ft | 287 kts | 210° |
| 2026-04-24 20:42 | 38.30412 | -0.58795 | 10216 ft | 283 kts | 211° |
| 2026-04-24 20:42 | 38.28779 | -0.60180 | 9943 ft | 282 kts | 211° |
| 2026-04-24 20:43 | 38.27142 | -0.61544 | 9632 ft | 281 kts | 210° |
| 2026-04-24 20:43 | 38.25506 | -0.62884 | 9335 ft | 279 kts | 210° |
| 2026-04-24 20:43 | 38.23870 | -0.64207 | 9041 ft | 278 kts | 210° |
| 2026-04-24 20:43 | 38.22242 | -0.65512 | 8749 ft | 276 kts | 210° |
| 2026-04-24 20:44 | 38.20618 | -0.66807 | 8463 ft | 275 kts | 210° |
| 2026-04-24 20:44 | 38.19000 | -0.68093 | 8167 ft | 274 kts | 210° |
| 2026-04-24 20:44 | 38.17391 | -0.69369 | 7900 ft | 272 kts | 210° |
| 2026-04-24 20:44 | 38.15789 | -0.70638 | 7604 ft | 271 kts | 210° |
| 2026-04-24 20:45 | 38.14191 | -0.71902 | 7299 ft | 270 kts | 209° |
| 2026-04-24 20:45 | 38.12594 | -0.73164 | 7011 ft | 270 kts | 209° |
| 2026-04-24 20:45 | 38.11004 | -0.74419 | 6771 ft | 267 kts | 210° |
| 2026-04-24 20:45 | 38.09463 | -0.75636 | 6700 ft | 254 kts | 210° |
| 2026-04-24 20:46 | 38.08056 | -0.76895 | 6557 ft | 243 kts | 219° |
| 2026-04-24 20:46 | 38.06844 | -0.78373 | 6234 ft | 242 kts | 223° |
| 2026-04-24 20:46 | 38.05655 | -0.79900 | 5968 ft | 242 kts | 223° |
| 2026-04-24 20:46 | 38.04486 | -0.81408 | 5675 ft | 239 kts | 223° |
| 2026-04-24 20:47 | 38.03308 | -0.82918 | 5191 ft | 243 kts | 223° |
| 2026-04-24 20:47 | 38.02133 | -0.84426 | 4791 ft | 243 kts | 223° |
| 2026-04-24 20:47 | 38.00950 | -0.85944 | 4379 ft | 241 kts | 223° |
| 2026-04-24 20:47 | 37.99780 | -0.87447 | 3935 ft | 240 kts | 224° |
| 2026-04-24 20:48 | 37.98606 | -0.88954 | 3476 ft | 240 kts | 224° |
| 2026-04-24 20:48 | 37.97465 | -0.90418 | 3482 ft | 231 kts | 224° |
| 2026-04-24 20:48 | 37.96334 | -0.91873 | 3485 ft | 229 kts | 224° |
| 2026-04-24 20:48 | 37.95258 | -0.93256 | 3467 ft | 212 kts | 224° |
| 2026-04-24 20:49 | 37.94259 | -0.94539 | 3475 ft | 199 kts | 224° |
| 2026-04-24 20:49 | 37.93295 | -0.95777 | 3482 ft | 194 kts | 224° |
| 2026-04-24 20:49 | 37.92381 | -0.96954 | 3468 ft | 180 kts | 224° |
| 2026-04-24 20:49 | 37.91511 | -0.98070 | 3484 ft | 175 kts | 224° |
| 2026-04-24 20:50 | 37.90642 | -0.99186 | 3314 ft | 177 kts | 224° |
| 2026-04-24 20:50 | 37.89780 | -1.00296 | 3045 ft | 175 kts | 224° |
| 2026-04-24 20:50 | 37.88927 | -1.01393 | 2810 ft | 176 kts | 224° |
| 2026-04-24 20:50 | 37.88069 | -1.02496 | 2578 ft | 176 kts | 224° |
| 2026-04-24 20:51 | 37.87208 | -1.03603 | 2342 ft | 176 kts | 224° |
| 2026-04-24 20:51 | 37.86353 | -1.04702 | 2106 ft | 172 kts | 225° |
| 2026-04-24 20:51 | 37.85538 | -1.05752 | 1866 ft | 163 kts | 225° |
| 2026-04-24 20:51 | 37.84745 | -1.06771 | 1688 ft | 162 kts | 225° |
| 2026-04-24 20:52 | 37.83957 | -1.07781 | 1442 ft | 160 kts | 225° |
| 2026-04-24 20:52 | 37.83171 | -1.08767 | 1265 ft | 158 kts | 225° |
| 2026-04-24 20:52 | 37.82408 | -1.09759 | 1045 ft | 157 kts | 227° |
| 2026-04-24 20:52 | 37.81650 | -1.10740 | 804 ft | 153 kts | 226° |
| 2026-04-24 20:53 | 37.80938 | -1.11656 | 647 ft | 142 kts | 226° |
| 2026-04-24 20:53 | 37.80381 | -1.12382 | 648 ft | 82 kts | 225° |
| 2026-04-24 20:53 | 37.80126 | -1.12713 | 643 ft | 38 kts | 226° |
| 2026-04-24 20:53 | 37.79955 | -1.12958 | 646 ft | 35 kts | 241° |
| 2026-04-24 20:54 | 37.79892 | -1.13193 | 652 ft | 15 kts | 262° |
| 2026-04-24 20:54 | 37.79965 | -1.13229 | 648 ft | 15 kts | 39° |
| 2026-04-24 20:54 | 37.80018 | -1.13161 | 647 ft | 10 kts | 46° |
| 2026-04-24 20:54 | 37.80066 | -1.13101 | 647 ft | 10 kts | 42° |
| 2026-04-24 20:55 | 37.80125 | -1.13097 | 646 ft | 9 kts | 327° |
| 2026-04-24 20:55 | 37.80167 | -1.13145 | 646 ft | 0 kts | 315° |
| 2026-04-24 20:55 | 37.80182 | -1.13158 | 646 ft | 8 kts | 340° |
| 2026-04-24 20:56 | 37.80253 | -1.13112 | 646 ft | 15 kts | 46° |
| 2026-04-24 20:56 | 37.80298 | -1.13061 | 646 ft | 1 kts | 2° |
| 2026-04-24 20:56 | 37.80319 | -1.13080 | 646 ft | 8 kts | 318° |
| 2026-04-24 20:56 | 37.80344 | -1.13111 | 646 ft | 2 kts | 317° |
| 2026-04-24 20:57 | 37.80350 | -1.13118 | 646 ft | 0 kts | 316° |
| 2026-04-24 20:57 | 37.80350 | -1.13119 | 646 ft | 0 kts | 316° |